Roseville, Ohio
Current Conditions -  °F | °C
As of 8:53 AM on Friday 24 Oct 2014 (Local Time) from KZZV Reporting Station
Broken Clouds Broken Clouds  
Wind Chill: 34°   Ceiling: 200
Heat Index: 34°   Visibility: 8mi
Dew Point: 33°   Wind: 0mph
Humidity: 96%   Direction: NA
Pressure: 30.13"   Gusts: NA
Location:  39.81°N, 82.07°W
Report Text: KZZV 241253Z AUTO 00000KT 8SM BKN002 01/01 A3013 RMK AO2 SLP207 T00110006
Loading
Personal Weather Stations






























Interactive Weather Map
Tropical Storm Tracking
New forecast layout! Learn more

10-Day Weather Forecast

Advertisements
Track Severe Weather on mobile